Terminal Aerodrome Forecast
Issued by NWS

Home | Current Version | Previous Version | Text Only | Print | Product List | Glossary On
Versions: 1 2 3 4 5 6 7 8 9 10 11 12 13 14 15 16 17 18 19 20 21 22 23 24 25 26 27
120
FTUS43 KDVN 192108 AAC
TAFCID
TAF AMD
KCID 192108Z 1921/2018 10006KT 1 1/2SM -RA BR SCT004 OVC020
     FM192300 10005KT 1SM -RA BR OVC006
     FM200400 10004KT 1/2SM -DZ FG OVC003
     FM200800 08003KT 1/4SM -DZ FG OVC001=

USA.gov is the U.S. government's official web portal to all federal, state and local government web resources and services.